createdAt,value
2023-02-22T00:06:26.576Z,53.27
2023-02-22T00:16:29.128Z,56.13
2023-02-22T00:26:33.564Z,57.90
2023-02-22T00:36:37.183Z,52.03
2023-02-22T00:46:39.506Z,60.60
2023-02-22T00:56:43.108Z,64.73
2023-02-22T01:06:45.422Z,67.57
2023-02-22T01:16:47.735Z,68.57
2023-02-22T01:26:51.782Z,74.60
2023-02-22T01:36:54.118Z,133.23
2023-02-22T01:46:57.781Z,114.03
2023-02-22T01:57:07.567Z,145.17
2023-02-22T02:07:13.281Z,133.13
2023-02-22T02:17:20.050Z,196.90
2023-02-22T02:27:24.356Z,184.77
2023-02-22T02:37:41.109Z,402.07
2023-02-22T02:47:47.583Z,257.27
2023-02-22T02:57:49.638Z,523.30
2023-02-22T03:08:14.091Z,289.77
2023-02-22T03:18:22.916Z,508.77
2023-02-22T03:28:27.037Z,191.17
2023-02-22T03:38:32.189Z,295.47
2023-02-22T03:48:44.103Z,301.50
2023-02-22T03:58:50.328Z,237.17
2023-02-22T04:08:54.224Z,142.50
2023-02-22T04:18:57.633Z,248.90
2023-02-22T04:28:59.951Z,199.33
2023-02-22T04:39:09.279Z,212.63
2023-02-22T04:49:11.824Z,299.33
2023-02-22T04:59:16.624Z,215.20
2023-02-22T05:09:21.805Z,227.00
2023-02-22T05:19:24.565Z,142.37
2023-02-22T05:29:26.632Z,144.60
2023-02-22T05:39:29.289Z,98.07
2023-02-22T05:49:31.656Z,257.63
2023-02-22T05:59:34.085Z,188.50
2023-02-22T06:09:36.462Z,202.10
2023-02-22T06:19:40.514Z,209.07
2023-02-22T06:29:46.687Z,128.37
2023-02-22T06:39:49.049Z,118.60
2023-02-22T06:49:55.551Z,114.50
2023-02-22T06:59:57.905Z,126.80
2023-02-22T07:10:00.058Z,142.53
2023-02-22T07:20:02.445Z,237.93
2023-02-22T07:30:09.024Z,85.10
2023-02-22T07:40:12.016Z,114.20
2023-02-22T07:50:16.180Z,210.20
2023-02-22T08:00:29.936Z,110.67
2023-02-22T08:10:33.095Z,312.63
2023-02-22T08:20:36.657Z,105.67
2023-02-22T08:30:40.761Z,65.20
2023-02-22T08:40:43.206Z,29.90
2023-02-22T08:50:45.805Z,19.00
2023-02-22T09:00:48.714Z,18.10
2023-02-22T09:10:51.478Z,19.23
2023-02-22T09:20:54.437Z,19.47
2023-02-22T09:30:56.752Z,17.53
2023-02-22T09:41:07.261Z,19.67
2023-02-22T09:51:15.889Z,16.70
2023-02-22T10:01:26.968Z,18.20
2023-02-22T10:11:35.662Z,16.33
2023-02-22T10:22:07.954Z,12.83
2023-02-22T10:32:28.691Z,14.40
2023-02-22T10:42:31.063Z,13.27
2023-02-22T10:52:34.593Z,10.73
2023-02-22T11:02:36.809Z,8.83
2023-02-22T11:12:41.476Z,7.73
2023-02-22T11:22:43.562Z,10.10
2023-02-22T11:32:48.452Z,9.77
2023-02-22T11:43:08.465Z,9.23
2023-02-22T11:53:32.072Z,8.70
2023-02-22T12:03:46.424Z,7.20
2023-02-22T12:14:15.413Z,5.70
2023-02-22T12:24:24.305Z,6.70
2023-02-22T12:34:36.079Z,4.63
2023-02-22T12:44:40.411Z,5.20
2023-02-22T12:54:45.658Z,4.60
2023-02-22T13:04:48.078Z,4.73
2023-02-22T13:15:00.580Z,3.00
2023-02-22T13:25:20.728Z,4.43
2023-02-22T13:35:55.514Z,5.13
2023-02-22T13:46:33.796Z,3.20
2023-02-22T13:56:36.117Z,5.15
2023-02-22T14:06:41.537Z,4.57
2023-02-22T14:16:44.026Z,6.43
2023-02-22T14:26:57.176Z,4.55
2023-02-22T14:37:11.443Z,5.82
2023-02-22T14:47:41.018Z,5.55
2023-02-22T14:58:11.560Z,6.00
2023-02-22T15:08:17.011Z,4.85
2023-02-22T15:18:34.431Z,5.10
2023-02-22T15:28:38.424Z,5.43
2023-02-22T15:38:43.657Z,5.32
2023-02-22T15:49:07.495Z,5.80
2023-02-22T15:59:15.274Z,8.25
2023-02-22T16:09:26.022Z,7.22
2023-02-22T16:19:40.681Z,9.33
2023-02-22T16:30:00.486Z,9.38
2023-02-22T16:40:05.572Z,7.60
2023-02-22T16:50:08.791Z,8.90
2023-02-22T17:00:31.105Z,8.90
2023-02-22T17:10:35.489Z,10.20
2023-02-22T17:20:39.542Z,9.87
2023-02-22T17:30:43.944Z,9.67
2023-02-22T17:40:48.153Z,10.03
2023-02-22T17:50:50.597Z,9.95
2023-02-22T18:00:59.029Z,12.93
2023-02-22T18:11:05.184Z,9.07
2023-02-22T18:21:07.923Z,12.70
2023-02-22T18:31:15.787Z,11.23
2023-02-22T18:41:19.370Z,14.23
2023-02-22T18:51:22.315Z,13.93
2023-02-22T19:01:25.099Z,14.17
2023-02-22T19:11:27.848Z,15.83
2023-02-22T19:21:31.543Z,17.25
2023-02-22T19:31:36.849Z,16.37
2023-02-22T19:41:39.491Z,15.00
2023-02-22T19:51:42.712Z,16.63
2023-02-22T20:01:45.011Z,17.40
2023-02-22T20:11:47.675Z,18.23
2023-02-22T20:21:52.245Z,22.83
2023-02-22T20:32:00.013Z,30.07
2023-02-22T20:42:04.778Z,30.50
2023-02-22T20:52:07.109Z,32.23
2023-02-22T21:02:10.697Z,31.90
2023-02-22T21:12:13.825Z,32.93
2023-02-22T21:22:16.185Z,34.83
2023-02-22T21:32:18.377Z,34.67
2023-02-22T21:42:21.003Z,35.90
2023-02-22T21:52:25.775Z,36.20
2023-02-22T22:02:29.418Z,37.37
2023-02-22T22:12:39.218Z,33.63
2023-02-22T22:22:46.598Z,31.40
2023-02-22T22:32:48.956Z,30.27
2023-02-22T22:42:52.028Z,38.53
2023-02-22T22:52:55.641Z,33.23
2023-02-22T23:02:58.201Z,31.17
2023-02-22T23:13:00.560Z,29.67
2023-02-22T23:23:03.678Z,33.67
2023-02-22T23:33:05.754Z,34.17
2023-02-22T23:43:10.286Z,39.10
2023-02-22T23:53:15.129Z,38.77
